createdAt,value
2023-03-12T00:00:20.860Z,50.24
2023-03-12T00:02:48.259Z,50.06
2023-03-12T00:05:15.428Z,49.48
2023-03-12T00:07:42.862Z,49.71
2023-03-12T00:10:11.168Z,50.04
2023-03-12T00:12:38.498Z,49.54
2023-03-12T00:15:06.706Z,49.86
2023-03-12T00:17:34.277Z,49.88
2023-03-12T00:20:01.404Z,49.96
2023-03-12T00:22:28.801Z,49.90
2023-03-12T00:24:56.777Z,50.02
2023-03-12T00:27:24.501Z,49.69
2023-03-12T00:29:51.737Z,49.83
2023-03-12T00:32:19.630Z,49.45
2023-03-12T00:34:53.997Z,49.72
2023-03-12T00:37:22.465Z,49.60
2023-03-12T00:39:49.611Z,49.33
2023-03-12T00:42:17.417Z,49.28
2023-03-12T00:44:45.035Z,49.29
2023-03-12T00:47:12.481Z,49.02
2023-03-12T00:49:39.868Z,48.86
2023-03-12T00:52:07.292Z,48.97
2023-03-12T00:54:34.726Z,48.72
2023-03-12T00:57:02.143Z,48.75
2023-03-12T00:59:29.598Z,48.70
2023-03-12T01:01:57.220Z,48.36
2023-03-12T01:04:24.444Z,48.10
2023-03-12T01:06:52.136Z,48.13
2023-03-12T01:09:19.691Z,48.57
2023-03-12T01:11:46.785Z,48.13
2023-03-12T01:14:14.232Z,47.96
2023-03-12T01:16:41.282Z,47.96
2023-03-12T01:19:08.815Z,47.89
2023-03-12T01:21:36.235Z,47.86
2023-03-12T01:24:03.979Z,47.46
2023-03-12T01:26:31.422Z,47.66
2023-03-12T01:28:59.228Z,47.13
2023-03-12T01:31:26.946Z,47.21
2023-03-12T01:33:54.746Z,46.65
2023-03-12T01:36:26.568Z,46.29
2023-03-12T01:38:57.077Z,46.20
2023-03-12T01:41:25.506Z,45.84
2023-03-12T01:43:53.505Z,46.45
2023-03-12T01:46:35.992Z,46.31
2023-03-12T01:49:15.735Z,46.38
2023-03-12T01:51:59.774Z,46.48
2023-03-12T01:54:57.947Z,46.29
2023-03-12T01:57:36.741Z,46.36
2023-03-12T02:00:11.360Z,46.19
2023-03-12T02:02:43.159Z,45.68
2023-03-12T02:05:16.853Z,45.62
2023-03-12T02:07:44.384Z,45.55
2023-03-12T02:10:11.796Z,45.87
2023-03-12T02:12:39.614Z,45.77
2023-03-12T02:15:07.799Z,45.64
2023-03-12T02:17:36.430Z,45.54
2023-03-12T02:20:13.249Z,45.74
2023-03-12T02:22:41.641Z,45.41
2023-03-12T02:25:31.168Z,45.46
2023-03-12T02:27:59.484Z,45.25
2023-03-12T02:30:27.856Z,44.98
2023-03-12T02:32:55.640Z,44.63
2023-03-12T02:35:23.123Z,44.53
2023-03-12T02:37:51.840Z,44.12
2023-03-12T02:40:40.174Z,44.20
2023-03-12T02:43:07.947Z,44.02
2023-03-12T02:45:36.129Z,43.54
2023-03-12T02:48:04.590Z,44.00
2023-03-12T02:50:31.644Z,43.84
2023-03-12T02:52:58.895Z,42.89
2023-03-12T02:55:26.357Z,43.19
2023-03-12T02:57:54.216Z,42.52
2023-03-12T03:00:21.975Z,42.80
2023-03-12T03:02:52.009Z,42.82
2023-03-12T03:05:20.519Z,42.52
2023-03-12T03:07:47.786Z,42.43
2023-03-12T03:10:17.262Z,41.54
2023-03-12T03:12:44.515Z,41.60
2023-03-12T03:15:12.395Z,41.55
2023-03-12T03:17:40.651Z,41.47
2023-03-12T03:20:11.151Z,42.04
2023-03-12T03:22:39.295Z,42.29
2023-03-12T03:25:07.210Z,42.70
2023-03-12T03:27:34.198Z,42.91
2023-03-12T03:30:02.116Z,43.08
2023-03-12T03:32:32.789Z,43.76
2023-03-12T03:35:00.360Z,44.12
2023-03-12T03:37:28.400Z,43.84
2023-03-12T03:39:55.587Z,44.07
2023-03-12T03:42:23.027Z,43.73
2023-03-12T03:44:50.460Z,43.39
2023-03-12T03:47:17.741Z,43.80
2023-03-12T03:49:44.966Z,43.08
2023-03-12T03:52:12.921Z,42.95
2023-03-12T03:54:40.498Z,42.30
2023-03-12T03:57:08.354Z,41.73
2023-03-12T03:59:35.525Z,41.89
2023-03-12T04:02:03.965Z,42.20
2023-03-12T04:04:34.943Z,42.47
2023-03-12T04:07:02.373Z,42.76
2023-03-12T04:09:31.090Z,42.02
2023-03-12T04:11:58.475Z,41.71
2023-03-12T04:14:26.115Z,41.75
2023-03-12T04:16:53.482Z,41.55
2023-03-12T04:19:21.082Z,41.21
2023-03-12T04:21:48.894Z,41.40
2023-03-12T04:24:17.117Z,41.38
2023-03-12T04:26:44.921Z,41.34
2023-03-12T04:29:14.160Z,41.20
2023-03-12T04:31:42.048Z,41.02
2023-03-12T04:34:10.781Z,40.97
2023-03-12T04:36:39.229Z,41.00
2023-03-12T04:39:07.316Z,41.05
2023-03-12T04:41:35.613Z,40.35
2023-03-12T04:44:13.671Z,40.11
2023-03-12T04:46:42.916Z,40.01
2023-03-12T04:49:13.216Z,40.07
2023-03-12T04:51:42.609Z,40.00
2023-03-12T04:54:10.265Z,40.24
2023-03-12T04:56:39.472Z,40.49
2023-03-12T04:59:06.752Z,40.24
2023-03-12T05:01:35.405Z,40.08
2023-03-12T05:04:07.654Z,40.42
2023-03-12T05:06:35.005Z,39.60
2023-03-12T05:09:02.863Z,40.01
2023-03-12T05:11:30.320Z,39.51
2023-03-12T05:13:57.978Z,39.12
2023-03-12T05:16:25.422Z,39.12
2023-03-12T05:18:53.127Z,38.75
2023-03-12T05:21:22.243Z,38.97
2023-03-12T05:23:52.778Z,38.71
2023-03-12T05:26:31.725Z,38.49
2023-03-12T05:29:11.287Z,38.28
2023-03-12T05:31:39.314Z,38.36
2023-03-12T05:34:07.610Z,38.74
2023-03-12T05:36:38.995Z,39.38
2023-03-12T05:39:06.773Z,39.79
2023-03-12T05:41:34.941Z,39.66
2023-03-12T05:44:13.410Z,39.16
2023-03-12T05:46:42.421Z,39.97
2023-03-12T05:49:10.469Z,39.49
2023-03-12T05:51:37.863Z,39.87
2023-03-12T05:54:05.756Z,39.66
2023-03-12T05:56:33.327Z,39.33
2023-03-12T05:59:00.426Z,38.83
2023-03-12T06:01:29.210Z,38.65
2023-03-12T06:03:58.997Z,38.46
2023-03-12T06:06:26.962Z,38.21
2023-03-12T06:08:54.841Z,37.68
2023-03-12T06:11:22.015Z,38.05
2023-03-12T06:13:49.651Z,38.44
2023-03-12T06:16:21.670Z,37.91
2023-03-12T06:18:52.456Z,38.93
2023-03-12T06:21:22.864Z,38.27
2023-03-12T06:23:52.195Z,38.86
2023-03-12T06:26:33.945Z,38.41
2023-03-12T06:29:01.170Z,38.62
2023-03-12T06:31:28.960Z,37.27
2023-03-12T06:33:56.413Z,38.00
2023-03-12T06:36:24.267Z,37.52
2023-03-12T06:38:51.762Z,37.28
2023-03-12T06:41:19.353Z,37.77
2023-03-12T06:43:46.563Z,37.62
2023-03-12T06:46:16.330Z,37.11
2023-03-12T06:48:46.126Z,37.75
2023-03-12T06:51:14.211Z,37.38
2023-03-12T06:53:42.634Z,37.02
2023-03-12T06:56:10.409Z,37.71
2023-03-12T06:58:38.030Z,37.31
2023-03-12T07:01:05.377Z,37.63
2023-03-12T07:03:33.091Z,37.92
2023-03-12T07:06:00.397Z,37.41
2023-03-12T07:08:31.065Z,36.87
2023-03-12T07:11:01.485Z,36.80
2023-03-12T07:13:30.260Z,36.07
2023-03-12T07:15:57.341Z,34.85
2023-03-12T07:18:24.761Z,33.40
2023-03-12T07:20:52.101Z,34.30
2023-03-12T07:23:19.153Z,33.65
2023-03-12T07:25:48.102Z,33.26
2023-03-12T07:28:16.107Z,33.40
2023-03-12T07:30:43.734Z,32.51
2023-03-12T07:33:12.213Z,32.83
2023-03-12T07:35:39.839Z,33.00
2023-03-12T07:38:08.182Z,33.44
2023-03-12T07:40:36.063Z,33.13
2023-03-12T07:43:04.194Z,32.96
2023-03-12T07:45:32.705Z,33.00
2023-03-12T07:48:00.194Z,32.94
2023-03-12T07:50:27.754Z,32.54
2023-03-12T07:52:55.097Z,32.51
2023-03-12T07:55:22.686Z,32.51
2023-03-12T07:57:49.854Z,32.28
2023-03-12T08:00:17.753Z,32.94
2023-03-12T08:02:45.690Z,32.57
2023-03-12T08:05:13.723Z,32.96
2023-03-12T08:07:40.961Z,33.75
2023-03-12T08:10:08.777Z,33.48
2023-03-12T08:12:37.336Z,32.94
2023-03-12T08:15:06.084Z,33.16
2023-03-12T08:17:33.391Z,33.48
2023-03-12T08:20:00.443Z,33.45
2023-03-12T08:22:27.967Z,34.28
2023-03-12T08:24:55.420Z,34.00
2023-03-12T08:27:22.598Z,34.17
2023-03-12T08:29:49.602Z,34.55
2023-03-12T08:32:17.104Z,34.15
2023-03-12T08:34:44.801Z,34.62
2023-03-12T08:37:11.896Z,34.93
2023-03-12T08:39:39.182Z,35.84
2023-03-12T08:42:07.519Z,35.93
2023-03-12T08:44:34.848Z,35.52
2023-03-12T08:47:02.537Z,35.24
2023-03-12T08:49:29.694Z,35.49
2023-03-12T08:51:56.932Z,35.62
2023-03-12T08:54:24.073Z,36.04
2023-03-12T08:56:51.903Z,35.76
2023-03-12T08:59:20.374Z,35.67
2023-03-12T09:01:47.654Z,35.84
2023-03-12T09:04:15.187Z,36.26
2023-03-12T09:06:42.619Z,35.88
2023-03-12T09:09:10.365Z,36.17
2023-03-12T09:11:39.529Z,36.19
2023-03-12T09:15:01.137Z,36.32
2023-03-12T09:16:54.482Z,36.23
2023-03-12T09:19:22.203Z,36.53
2023-03-12T09:21:49.397Z,36.02
2023-03-12T09:24:16.816Z,36.38
2023-03-12T09:26:43.864Z,36.55
2023-03-12T09:29:11.299Z,36.63
2023-03-12T09:31:38.934Z,37.11
2023-03-12T09:34:06.179Z,37.04
2023-03-12T09:36:33.402Z,37.18
2023-03-12T09:39:00.944Z,37.15
2023-03-12T09:41:30.363Z,37.12
2023-03-12T09:44:30.402Z,37.73
2023-03-12T09:47:04.300Z,38.26
2023-03-12T09:49:41.950Z,37.96
2023-03-12T09:52:24.898Z,38.15
2023-03-12T09:54:57.161Z,38.04
2023-03-12T09:57:25.557Z,38.71
2023-03-12T09:59:52.842Z,39.06
2023-03-12T10:02:42.030Z,39.40
2023-03-12T10:05:42.902Z,39.31
2023-03-12T10:08:46.509Z,39.09
2023-03-12T10:11:16.798Z,39.56
2023-03-12T10:13:54.767Z,40.23
2023-03-12T10:16:47.098Z,39.76
2023-03-12T10:19:26.740Z,40.14
2023-03-12T10:22:14.154Z,40.08
2023-03-12T10:25:14.356Z,40.34
2023-03-12T10:27:42.166Z,40.38
2023-03-12T10:30:20.773Z,40.38
2023-03-12T10:32:54.221Z,40.33
2023-03-12T10:35:23.312Z,40.31
2023-03-12T10:37:56.967Z,40.42
2023-03-12T10:40:34.211Z,40.63
2023-03-12T10:43:02.003Z,40.38
2023-03-12T10:45:50.025Z,40.60
2023-03-12T10:48:22.624Z,40.44
2023-03-12T10:51:09.462Z,40.64
2023-03-12T10:53:42.545Z,40.61
2023-03-12T10:56:13.369Z,40.65
2023-03-12T10:58:45.704Z,40.81
2023-03-12T11:01:21.990Z,41.46
2023-03-12T11:03:51.181Z,41.66
2023-03-12T11:06:29.075Z,41.48
2023-03-12T11:09:17.025Z,41.91
2023-03-12T11:11:47.169Z,41.76
2023-03-12T11:14:17.470Z,41.21
2023-03-12T11:16:44.651Z,41.40
2023-03-12T11:19:14.085Z,40.85
2023-03-12T11:21:41.577Z,41.00
2023-03-12T11:24:12.409Z,40.97
2023-03-12T11:26:53.206Z,40.20
2023-03-12T11:29:39.396Z,40.20
2023-03-12T11:32:15.953Z,40.03
2023-03-12T11:34:47.276Z,40.65
2023-03-12T11:37:36.910Z,41.04
2023-03-12T11:40:33.610Z,41.93
2023-03-12T11:43:43.372Z,42.82
2023-03-12T11:46:29.980Z,42.78
2023-03-12T11:49:18.268Z,43.00
2023-03-12T11:52:21.039Z,43.24
2023-03-12T11:54:53.305Z,43.66
2023-03-12T11:57:39.154Z,43.80
2023-03-12T12:00:12.802Z,44.28
2023-03-12T12:03:12.173Z,44.73
2023-03-12T12:06:04.060Z,45.44
2023-03-12T12:08:58.743Z,45.96
2023-03-12T12:11:35.711Z,46.44
2023-03-12T12:14:34.944Z,47.97
2023-03-12T12:17:25.323Z,48.06
2023-03-12T12:20:09.333Z,48.93
2023-03-12T12:22:52.663Z,49.31
2023-03-12T12:25:33.408Z,49.04
2023-03-12T12:28:08.226Z,49.81
2023-03-12T12:30:41.195Z,49.75
2023-03-12T12:33:46.221Z,50.30
2023-03-12T12:36:13.983Z,50.14
2023-03-12T12:38:44.286Z,50.94
2023-03-12T12:41:16.325Z,51.01
2023-03-12T12:43:51.453Z,50.28
2023-03-12T12:46:25.088Z,49.87
2023-03-12T12:48:55.813Z,49.15
2023-03-12T12:51:29.854Z,48.12
2023-03-12T12:54:01.635Z,47.87
2023-03-12T12:56:59.202Z,47.68
2023-03-12T12:59:31.478Z,47.85
2023-03-12T13:01:59.763Z,47.57
2023-03-12T13:04:36.825Z,47.57
2023-03-12T13:07:14.010Z,47.08
2023-03-12T13:09:52.141Z,47.38
2023-03-12T13:12:25.857Z,46.96
2023-03-12T13:14:53.980Z,46.50
2023-03-12T13:17:29.150Z,45.76
2023-03-12T13:20:20.453Z,45.83
2023-03-12T13:23:13.001Z,45.60
2023-03-12T13:26:08.282Z,46.01
2023-03-12T13:28:40.878Z,45.42
2023-03-12T13:31:15.155Z,45.68
2023-03-12T13:33:45.209Z,45.05
2023-03-12T13:36:15.708Z,45.47
2023-03-12T13:39:00.273Z,45.16
2023-03-12T13:41:34.761Z,44.98
2023-03-12T13:44:34.453Z,44.57
2023-03-12T13:47:10.730Z,45.37
2023-03-12T13:50:01.316Z,44.58
2023-03-12T13:52:40.672Z,45.00
2023-03-12T13:55:14.401Z,44.78
2023-03-12T13:57:45.773Z,44.38
2023-03-12T14:00:26.914Z,45.57
2023-03-12T14:03:22.593Z,46.51
2023-03-12T14:06:19.965Z,46.53
2023-03-12T14:09:11.365Z,47.26
2023-03-12T14:12:09.012Z,48.12
2023-03-12T14:14:49.079Z,48.12
2023-03-12T14:17:21.567Z,47.86
2023-03-12T14:19:52.708Z,47.96
2023-03-12T14:22:22.596Z,48.54
2023-03-12T14:25:01.614Z,48.78
2023-03-12T14:27:33.134Z,48.55
2023-03-12T14:30:12.230Z,47.62
2023-03-12T14:32:39.647Z,46.05
2023-03-12T14:35:46.978Z,44.84
2023-03-12T14:38:21.972Z,46.44
2023-03-12T14:41:29.105Z,46.33
2023-03-12T14:44:03.718Z,46.10
2023-03-12T14:46:31.030Z,45.40
2023-03-12T14:48:58.323Z,46.10
2023-03-12T14:51:29.381Z,45.71
2023-03-12T14:53:57.146Z,45.97
2023-03-12T14:56:33.137Z,45.64
2023-03-12T14:59:02.594Z,46.62
2023-03-12T15:01:31.809Z,46.51
2023-03-12T15:04:04.141Z,46.95
2023-03-12T15:06:37.765Z,47.63
2023-03-12T15:09:06.421Z,48.10
2023-03-12T15:11:34.983Z,47.29
2023-03-12T15:14:07.559Z,46.65
2023-03-12T15:16:34.957Z,45.17
2023-03-12T15:19:02.697Z,44.98
2023-03-12T15:21:34.581Z,43.83
2023-03-12T15:24:02.593Z,43.65
2023-03-12T15:26:31.863Z,43.50
2023-03-12T15:29:03.230Z,43.95
2023-03-12T15:31:44.049Z,43.51
2023-03-12T15:34:16.366Z,43.77
2023-03-12T15:36:48.199Z,43.70
2023-03-12T15:39:32.934Z,43.75
2023-03-12T15:42:10.228Z,43.58
2023-03-12T15:44:46.232Z,43.36
2023-03-12T15:47:21.680Z,43.02
2023-03-12T15:49:53.234Z,42.39
2023-03-12T15:52:24.478Z,42.56
2023-03-12T15:55:05.504Z,42.39
2023-03-12T15:57:34.361Z,42.19
2023-03-12T16:00:31.622Z,42.74
2023-03-12T16:03:00.518Z,42.58
2023-03-12T16:05:30.608Z,43.04
2023-03-12T16:07:57.967Z,42.47
2023-03-12T16:10:26.741Z,42.10
2023-03-12T16:13:03.594Z,41.52
2023-03-12T16:15:33.049Z,40.71
2023-03-12T16:18:00.554Z,40.50
2023-03-12T16:20:27.931Z,40.29
2023-03-12T16:22:55.356Z,39.55
2023-03-12T16:25:23.314Z,39.41
2023-03-12T16:27:54.980Z,39.55
2023-03-12T16:30:30.776Z,38.81
2023-03-12T16:32:58.580Z,38.72
2023-03-12T16:35:28.034Z,38.70
2023-03-12T16:37:55.788Z,38.86
2023-03-12T16:40:33.038Z,38.98
2023-03-12T16:43:03.218Z,39.02
2023-03-12T16:45:30.880Z,38.81
2023-03-12T16:48:03.361Z,38.68
2023-03-12T16:50:30.965Z,38.69
2023-03-12T16:52:58.192Z,38.24
2023-03-12T16:55:29.822Z,38.17
2023-03-12T16:58:01.062Z,38.33
2023-03-12T17:00:30.124Z,37.96
2023-03-12T17:02:57.797Z,37.39
2023-03-12T17:05:28.853Z,37.32
2023-03-12T17:07:56.568Z,37.38
2023-03-12T17:10:23.978Z,37.28
2023-03-12T17:12:51.233Z,37.93
2023-03-12T17:15:30.717Z,42.85
2023-03-12T17:18:02.824Z,47.41
2023-03-12T17:20:35.754Z,48.77
2023-03-12T17:23:03.594Z,49.77
2023-03-12T17:25:33.009Z,50.53
2023-03-12T17:28:00.285Z,50.68
2023-03-12T17:30:28.674Z,51.25
2023-03-12T17:33:09.153Z,51.07
2023-03-12T17:35:36.522Z,51.19
2023-03-12T17:38:03.785Z,51.41
2023-03-12T17:40:31.257Z,50.73
2023-03-12T17:42:58.682Z,50.12
2023-03-12T17:45:25.974Z,49.24
2023-03-12T17:47:53.490Z,48.16
2023-03-12T17:50:20.575Z,47.23
2023-03-12T17:52:48.163Z,47.01
2023-03-12T17:55:15.254Z,46.96
2023-03-12T17:57:44.741Z,46.54
2023-03-12T18:00:12.625Z,47.11
2023-03-12T18:02:40.217Z,47.04
2023-03-12T18:05:08.931Z,47.75
2023-03-12T18:07:36.301Z,47.95
2023-03-12T18:10:05.725Z,48.66
2023-03-12T18:12:32.979Z,48.74
2023-03-12T18:15:00.843Z,47.97
2023-03-12T18:17:28.060Z,45.35
2023-03-12T18:19:55.201Z,41.75
2023-03-12T18:22:22.874Z,40.98
2023-03-12T18:24:50.628Z,39.85
2023-03-12T18:27:17.740Z,39.00
2023-03-12T18:29:44.889Z,38.81
2023-03-12T18:32:12.229Z,38.48
2023-03-12T18:34:42.064Z,38.50
2023-03-12T18:37:09.296Z,37.96
2023-03-12T18:39:36.603Z,36.45
2023-03-12T18:42:03.737Z,36.27
2023-03-12T18:44:31.219Z,36.00
2023-03-12T18:46:58.382Z,36.20
2023-03-12T18:49:26.087Z,35.95
2023-03-12T18:51:55.664Z,35.68
2023-03-12T18:54:24.669Z,35.33
2023-03-12T18:56:52.078Z,35.29
2023-03-12T18:59:19.592Z,35.25
2023-03-12T19:01:46.921Z,35.84
2023-03-12T19:04:16.575Z,35.88
2023-03-12T19:06:50.873Z,36.43
2023-03-12T19:09:19.273Z,37.26
2023-03-12T19:11:47.966Z,37.98
2023-03-12T19:14:15.277Z,38.22
2023-03-12T19:16:42.916Z,39.09
2023-03-12T19:19:10.657Z,39.29
2023-03-12T19:21:37.786Z,39.58
2023-03-12T19:24:05.005Z,40.15
2023-03-12T19:26:32.182Z,40.09
2023-03-12T19:28:59.605Z,40.07
2023-03-12T19:31:26.819Z,40.22
2023-03-12T19:33:54.267Z,40.48
2023-03-12T19:36:21.617Z,40.96
2023-03-12T19:38:49.079Z,40.92
2023-03-12T19:41:17.097Z,41.02
2023-03-12T19:43:44.475Z,41.21
2023-03-12T19:46:11.790Z,41.61
2023-03-12T19:48:39.281Z,41.70
2023-03-12T19:51:10.430Z,41.29
2023-03-12T19:53:37.956Z,41.25
2023-03-12T19:56:05.690Z,41.45
2023-03-12T19:58:32.764Z,40.78
2023-03-12T20:01:00.891Z,41.27
2023-03-12T20:03:28.543Z,40.75
2023-03-12T20:05:55.968Z,40.62
2023-03-12T20:08:26.083Z,40.76
2023-03-12T20:10:53.408Z,41.36
2023-03-12T20:13:20.501Z,41.11
2023-03-12T20:15:48.495Z,40.83
2023-03-12T20:18:15.964Z,40.90
2023-03-12T20:20:43.319Z,40.78
2023-03-12T20:23:10.903Z,40.99
2023-03-12T20:25:41.652Z,41.42
2023-03-12T20:28:10.811Z,40.86
2023-03-12T20:30:40.511Z,40.52
2023-03-12T20:33:08.236Z,40.50
2023-03-12T20:35:36.138Z,40.09
2023-03-12T20:38:03.484Z,40.39
2023-03-12T20:40:30.805Z,39.89
2023-03-12T20:42:58.524Z,39.42
2023-03-12T20:45:25.616Z,39.08
2023-03-12T20:47:53.425Z,38.55
2023-03-12T20:50:20.635Z,38.85
2023-03-12T20:52:47.759Z,38.74
2023-03-12T20:55:15.384Z,38.90
2023-03-12T20:57:42.899Z,38.69
2023-03-12T21:00:11.169Z,39.02
2023-03-12T21:02:38.699Z,39.05
2023-03-12T21:05:06.226Z,39.19
2023-03-12T21:07:33.960Z,39.30
2023-03-12T21:10:01.244Z,38.96
2023-03-12T21:12:28.326Z,39.17
2023-03-12T21:14:55.575Z,39.68
2023-03-12T21:17:23.141Z,39.45
2023-03-12T21:19:50.623Z,39.65
2023-03-12T21:22:17.752Z,39.73
2023-03-12T21:24:45.087Z,39.25
2023-03-12T21:27:12.671Z,39.50
2023-03-12T21:29:40.253Z,39.46
2023-03-12T21:32:07.677Z,39.07
2023-03-12T21:34:34.732Z,39.25
2023-03-12T21:37:02.149Z,39.05
2023-03-12T21:39:29.340Z,39.60
2023-03-12T21:41:56.663Z,39.50
2023-03-12T21:44:23.909Z,39.28
2023-03-12T21:46:51.958Z,39.09
2023-03-12T21:49:19.577Z,38.95
2023-03-12T21:51:47.309Z,38.61
2023-03-12T21:54:14.695Z,38.51
2023-03-12T21:56:42.112Z,38.27
2023-03-12T21:59:10.666Z,38.02
2023-03-12T22:01:38.142Z,37.84
2023-03-12T22:04:05.631Z,37.39
2023-03-12T22:06:32.932Z,37.48
2023-03-12T22:09:00.117Z,37.25
2023-03-12T22:11:27.466Z,37.17
2023-03-12T22:13:54.586Z,36.66
2023-03-12T22:16:22.146Z,36.84
2023-03-12T22:18:49.974Z,36.58
2023-03-12T22:21:18.659Z,46.81
2023-03-12T22:23:50.995Z,47.90
2023-03-12T22:26:19.508Z,49.01
2023-03-12T22:28:54.885Z,50.89
2023-03-12T22:31:23.149Z,52.17
2023-03-12T22:33:50.739Z,53.27
2023-03-12T22:36:18.218Z,53.93
2023-03-12T22:38:47.740Z,54.00
2023-03-12T22:41:19.444Z,54.59
2023-03-12T22:43:47.328Z,55.16
2023-03-12T22:46:16.211Z,54.73
2023-03-12T22:48:44.379Z,54.75
2023-03-12T22:51:11.907Z,54.08
2023-03-12T22:53:39.217Z,54.51
2023-03-12T22:56:08.319Z,54.64
2023-03-12T22:58:35.528Z,55.05
2023-03-12T23:01:08.299Z,55.09
2023-03-12T23:03:36.298Z,55.72
2023-03-12T23:06:03.674Z,55.32
2023-03-12T23:08:31.213Z,55.82
2023-03-12T23:11:00.440Z,56.05
2023-03-12T23:13:28.626Z,55.79
2023-03-12T23:16:02.764Z,56.03
2023-03-12T23:18:30.262Z,55.64
2023-03-12T23:20:59.331Z,55.63
2023-03-12T23:23:26.663Z,55.65
2023-03-12T23:25:55.483Z,55.28
2023-03-12T23:28:22.800Z,55.66
2023-03-12T23:31:00.986Z,55.04
2023-03-12T23:33:28.479Z,55.18
2023-03-12T23:36:03.301Z,55.00
2023-03-12T23:38:31.005Z,54.89
2023-03-12T23:41:18.008Z,55.34
2023-03-12T23:43:45.202Z,54.55
2023-03-12T23:46:13.307Z,54.74
2023-03-12T23:48:40.953Z,54.64
2023-03-12T23:51:11.134Z,54.68
2023-03-12T23:53:39.457Z,54.19
2023-03-12T23:56:08.968Z,53.77
2023-03-12T23:58:36.712Z,53.28
